Time;durP1;ratioP1;P1;durP2;ratioP2;P2;SDS_P1;SDS_P2;PMS_P1;PMS_P2;Temp;Humidity;BMP_temperature;BMP_pressure;BME280_temperature;BME280_humidity;BME280_pressure;Samples;Min_cycle;Max_cycle;Signal;HPM_P1;HPM_P2
2023/09/23 00:02:22;;;;;;;7.45;2.95;;;12.10;99.90;;;;;;5011432;28;20462;-77
2023/09/23 00:04:48;;;;;;;3.88;2.70;;;12.00;99.90;;;;;;5028314;28;20076;-77
2023/09/23 00:07:14;;;;;;;4.28;2.83;;;12.00;99.90;;;;;;5010630;28;20128;-77
2023/09/23 00:09:39;;;;;;;3.38;2.10;;;12.00;99.90;;;;;;5035021;28;20045;-77
2023/09/23 00:12:06;;;;;;;4.68;2.20;;;12.10;99.90;;;;;;5023921;28;20033;-77
2023/09/23 00:14:32;;;;;;;2.58;1.92;;;12.00;99.90;;;;;;5023689;28;20047;-77
2023/09/23 00:16:58;;;;;;;2.65;1.88;;;12.00;99.90;;;;;;5018222;28;20045;-77
2023/09/23 00:19:24;;;;;;;3.45;1.63;;;12.00;99.90;;;;;;5013270;28;20045;-77
2023/09/23 00:21:52;;;;;;;2.47;1.75;;;12.00;99.90;;;;;;5029721;28;20044;-76
2023/09/23 00:24:17;;;;;;;2.72;1.50;;;12.00;99.90;;;;;;5026803;28;20049;-78
2023/09/23 00:26:43;;;;;;;1.95;1.60;;;11.90;99.90;;;;;;5010370;28;20550;-77
2023/09/23 00:29:11;;;;;;;1.80;1.25;;;11.90;99.90;;;;;;5009779;28;20055;-78
2023/09/23 00:31:36;;;;;;;2.85;1.08;;;11.90;99.90;;;;;;4995533;28;20804;-77
2023/09/23 00:34:03;;;;;;;3.30;1.10;;;11.90;99.90;;;;;;5020208;28;20049;-77
2023/09/23 00:36:28;;;;;;;2.83;1.40;;;11.80;99.90;;;;;;5026112;28;20044;-77
2023/09/23 00:38:55;;;;;;;1.42;1.25;;;11.80;99.90;;;;;;5037479;28;20045;-77
2023/09/23 00:41:21;;;;;;;2.58;1.35;;;11.80;99.90;;;;;;5028678;28;20044;-77
2023/09/23 00:43:47;;;;;;;1.30;1.00;;;11.70;99.90;;;;;;5033198;28;20114;-78
2023/09/23 00:46:23;;;;;;;2.00;1.10;;;11.70;99.90;;;;;;5031434;28;20175;-77
2023/09/23 00:48:50;;;;;;;1.10;0.88;;;11.70;99.90;;;;;;5060339;28;20048;-78
2023/09/23 00:51:18;;;;;;;1.73;1.10;;;11.70;99.90;;;;;;5046084;28;20123;-78
2023/09/23 00:53:44;;;;;;;2.58;1.20;;;11.70;99.90;;;;;;5045660;28;20788;-78
2023/09/23 00:56:10;;;;;;;3.05;0.88;;;11.60;99.90;;;;;;5048447;28;20048;-78
2023/09/23 00:58:42;;;;;;;1.38;1.00;;;11.70;99.90;;;;;;5055140;28;20489;-78
2023/09/23 01:01:08;;;;;;;2.95;0.70;;;11.70;99.90;;;;;;5030532;28;20444;-78
2023/09/23 01:03:38;;;;;;;1.52;1.00;;;11.70;99.90;;;;;;5047158;28;20678;-77
2023/09/23 01:06:15;;;;;;;3.42;0.88;;;11.60;99.90;;;;;;5040995;28;20090;-77
2023/09/23 01:08:45;;;;;;;2.33;1.10;;;11.60;99.90;;;;;;5026195;28;20029;-77
2023/09/23 01:11:16;;;;;;;2.05;1.20;;;11.60;99.90;;;;;;5037096;28;20044;-77
2023/09/23 01:13:44;;;;;;;2.20;0.95;;;11.60;99.90;;;;;;5044372;28;20044;-77
2023/09/23 01:16:14;;;;;;;1.08;0.80;;;11.60;99.90;;;;;;5043548;28;20036;-77
2023/09/23 01:18:49;;;;;;;1.13;0.73;;;11.50;99.90;;;;;;5047876;28;20045;-78
2023/09/23 01:21:15;;;;;;;1.40;1.00;;;11.50;99.90;;;;;;5029416;28;20510;-78
2023/09/23 01:23:43;;;;;;;3.20;1.08;;;11.50;99.90;;;;;;5036596;28;20036;-78
2023/09/23 01:26:11;;;;;;;2.70;1.13;;;11.50;99.90;;;;;;5030823;28;20053;-78
2023/09/23 01:28:37;;;;;;;1.90;1.00;;;11.50;99.90;;;;;;5039083;28;20487;-78
2023/09/23 01:31:04;;;;;;;2.25;0.88;;;11.50;99.90;;;;;;5024507;28;20037;-78
2023/09/23 01:33:30;;;;;;;1.33;1.00;;;11.50;99.90;;;;;;5020705;28;20056;-78
2023/09/23 01:36:02;;;;;;;4.18;1.10;;;11.50;99.90;;;;;;5031417;28;20041;-78
2023/09/23 01:38:29;;;;;;;2.42;1.08;;;11.50;99.90;;;;;;5047411;28;20080;-77
2023/09/23 01:40:55;;;;;;;2.55;1.63;;;11.50;99.90;;;;;;5029511;28;20057;-78
2023/09/23 01:43:21;;;;;;;2.13;1.40;;;11.60;99.90;;;;;;5040799;28;20059;-78
2023/09/23 01:45:47;;;;;;;3.33;1.70;;;11.60;99.90;;;;;;5047605;28;20494;-78
2023/09/23 01:48:12;;;;;;;2.15;1.38;;;11.50;99.90;;;;;;5030792;28;20037;-77
2023/09/23 01:50:38;;;;;;;1.80;1.50;;;11.50;99.90;;;;;;5036487;28;20419;-78
2023/09/23 01:53:04;;;;;;;4.72;1.77;;;11.50;99.90;;;;;;5049197;28;20131;-78
2023/09/23 01:55:30;;;;;;;1.90;1.63;;;11.60;99.90;;;;;;5052689;28;20048;-78
2023/09/23 01:57:56;;;;;;;3.30;2.15;;;11.60;99.90;;;;;;5050010;28;20597;-78
2023/09/23 02:00:24;;;;;;;6.63;2.25;;;11.70;99.90;;;;;;5050698;28;20054;-78
2023/09/23 02:02:53;;;;;;;4.40;2.20;;;11.70;99.90;;;;;;5030105;28;20119;-78
2023/09/23 02:05:20;;;;;;;3.97;2.50;;;11.70;99.90;;;;;;5063083;28;20056;-78
2023/09/23 02:07:47;;;;;;;5.55;2.47;;;11.80;99.90;;;;;;5039792;28;20065;-78
2023/09/23 02:10:15;;;;;;;3.47;2.22;;;11.80;99.90;;;;;;5067956;28;20063;-78
2023/09/23 02:12:44;;;;;;;4.43;2.47;;;11.70;99.90;;;;;;5066378;28;20097;-78
2023/09/23 02:15:14;;;;;;;6.60;3.67;;;11.70;99.90;;;;;;5042104;28;20098;-77
2023/09/23 02:17:42;;;;;;;3.97;2.55;;;11.80;99.90;;;;;;5034895;28;20048;-78
2023/09/23 02:20:22;;;;;;;4.72;3.20;;;11.80;99.90;;;;;;5053355;28;20434;-78
2023/09/23 02:22:49;;;;;;;6.25;3.13;;;11.80;99.90;;;;;;5037683;28;20048;-78
2023/09/23 02:25:16;;;;;;;8.23;4.60;;;11.80;99.90;;;;;;5029589;28;20048;-78
2023/09/23 02:27:44;;;;;;;6.95;3.28;;;11.90;99.90;;;;;;5039082;28;20043;-78
2023/09/23 02:30:11;;;;;;;5.13;3.22;;;11.90;99.90;;;;;;5050186;28;20047;-78
2023/09/23 02:32:44;;;;;;;5.18;3.22;;;11.80;99.90;;;;;;5051374;28;20043;-78
2023/09/23 02:35:12;;;;;;;4.68;2.85;;;11.80;99.90;;;;;;5052540;28;20483;-78
2023/09/23 02:37:41;;;;;;;5.72;3.17;;;11.80;99.90;;;;;;5028702;28;20394;-78
2023/09/23 02:40:12;;;;;;;4.13;2.63;;;11.70;99.90;;;;;;5035000;28;20072;-78
2023/09/23 02:42:51;;;;;;;5.45;2.97;;;11.70;99.90;;;;;;5032564;28;20060;-78
2023/09/23 02:45:17;;;;;;;3.85;2.72;;;11.60;99.90;;;;;;5031936;28;20040;-77
2023/09/23 02:47:43;;;;;;;3.67;2.75;;;11.50;99.90;;;;;;5051016;28;20537;-78
2023/09/23 02:50:10;;;;;;;4.70;2.65;;;11.40;99.90;;;;;;5055628;28;20067;-77
2023/09/23 02:52:40;;;;;;;4.95;3.17;;;11.30;99.90;;;;;;5042529;28;20434;-78
2023/09/23 02:55:12;;;;;;;4.85;2.97;;;11.20;99.90;;;;;;5051800;28;20622;-78
2023/09/23 02:57:45;;;;;;;4.57;3.03;;;11.10;99.90;;;;;;5041262;28;20044;-78
2023/09/23 03:00:29;;;;;;;4.32;3.00;;;11.00;99.90;;;;;;5048576;28;20052;-77
2023/09/23 03:02:57;;;;;;;4.95;2.75;;;10.90;99.90;;;;;;5042026;28;20040;-77
2023/09/23 03:05:31;;;;;;;5.55;3.13;;;10.90;99.90;;;;;;5028087;28;20056;-77
2023/09/23 03:08:01;;;;;;;5.63;2.90;;;10.80;99.90;;;;;;5050109;28;20716;-77
2023/09/23 03:10:32;;;;;;;5.40;3.33;;;10.70;99.90;;;;;;5037818;28;20051;-78
2023/09/23 03:13:04;;;;;;;7.03;3.45;;;10.70;99.90;;;;;;5047354;28;20056;-77
2023/09/23 03:15:44;;;;;;;5.18;3.33;;;10.60;99.90;;;;;;5046902;28;20036;-78
2023/09/23 03:18:10;;;;;;;5.45;3.50;;;10.60;99.90;;;;;;5033185;28;20041;-78
2023/09/23 03:20:39;;;;;;;5.60;3.80;;;10.50;99.90;;;;;;5042073;28;20076;-78
2023/09/23 03:23:10;;;;;;;8.68;3.85;;;10.50;99.90;;;;;;5044093;28;20036;-78
2023/09/23 03:25:44;;;;;;;10.52;4.00;;;10.40;99.90;;;;;;5031912;28;20041;-77
2023/09/23 03:28:10;;;;;;;8.02;4.05;;;10.40;99.90;;;;;;5052901;28;20098;-77
2023/09/23 03:30:36;;;;;;;8.15;4.47;;;10.40;99.90;;;;;;5055270;28;20041;-77
2023/09/23 03:33:02;;;;;;;6.28;4.45;;;10.40;99.90;;;;;;5024172;28;20123;-77
2023/09/23 03:35:30;;;;;;;5.90;4.10;;;10.40;99.90;;;;;;5045070;28;20056;-77
2023/09/23 03:37:58;;;;;;;6.82;4.72;;;10.40;99.90;;;;;;5043237;28;20055;-77
2023/09/23 03:40:26;;;;;;;8.82;4.75;;;10.40;99.90;;;;;;5034273;28;20068;-77
2023/09/23 03:42:52;;;;;;;7.38;4.70;;;10.30;99.90;;;;;;5046857;28;20056;-77
2023/09/23 03:45:18;;;;;;;7.28;5.13;;;10.20;99.90;;;;;;5049630;28;20044;-77
2023/09/23 03:47:45;;;;;;;8.18;5.22;;;10.30;99.90;;;;;;5040122;28;20128;-77
2023/09/23 03:50:12;;;;;;;8.90;5.22;;;10.20;99.90;;;;;;5049434;28;20380;-77
2023/09/23 03:52:38;;;;;;;9.10;5.20;;;10.20;99.90;;;;;;5036872;28;20519;-77
2023/09/23 03:55:06;;;;;;;9.95;5.20;;;10.20;99.90;;;;;;5030894;28;20063;-77
2023/09/23 03:57:32;;;;;;;8.82;5.65;;;10.10;99.90;;;;;;5048593;28;20051;-77
2023/09/23 03:59:57;;;;;;;9.23;5.75;;;10.10;99.90;;;;;;5049456;28;20048;-78
2023/09/23 04:02:23;;;;;;;9.35;5.57;;;10.10;99.90;;;;;;5056742;28;20127;-77
2023/09/23 04:04:49;;;;;;;9.38;6.07;;;10.20;99.90;;;;;;5030142;28;20049;-77
2023/09/23 04:07:16;;;;;;;10.73;6.47;;;10.20;99.90;;;;;;5038844;28;20127;-77
2023/09/23 04:09:42;;;;;;;12.68;5.75;;;10.20;99.90;;;;;;5045257;28;20036;-77
2023/09/23 04:12:10;;;;;;;11.52;5.97;;;10.20;99.90;;;;;;5047630;28;20502;-77
2023/09/23 04:14:37;;;;;;;11.90;5.78;;;10.10;99.90;;;;;;5055269;28;20042;-77
2023/09/23 04:17:03;;;;;;;11.05;6.22;;;10.10;99.90;;;;;;5028325;28;20068;-77
2023/09/23 04:19:29;;;;;;;12.02;6.75;;;10.10;99.90;;;;;;5036679;28;20072;-77
2023/09/23 04:21:56;;;;;;;11.25;6.20;;;10.20;99.90;;;;;;5047599;28;20048;-77
2023/09/23 04:24:22;;;;;;;10.57;7.25;;;10.10;99.90;;;;;;5055899;28;20086;-78
2023/09/23 04:26:47;;;;;;;11.77;6.40;;;10.20;99.90;;;;;;5032139;28;20040;-77
2023/09/23 04:29:14;;;;;;;10.43;6.18;;;10.20;99.90;;;;;;5044630;28;20099;-77
2023/09/23 04:31:39;;;;;;;10.25;6.43;;;10.20;99.90;;;;;;5029121;28;20501;-77
2023/09/23 04:34:05;;;;;;;11.27;6.75;;;10.20;99.90;;;;;;5030341;28;20039;-77
2023/09/23 04:36:31;;;;;;;13.73;7.55;;;10.10;99.90;;;;;;5044438;28;20036;-77
2023/09/23 04:38:57;;;;;;;10.77;7.03;;;10.00;99.90;;;;;;5043401;28;20044;-77
2023/09/23 04:41:22;;;;;;;12.50;6.70;;;10.00;99.90;;;;;;5049925;28;20076;-77
2023/09/23 04:43:48;;;;;;;9.60;6.22;;;10.00;99.90;;;;;;5048239;28;20052;-77
2023/09/23 04:46:17;;;;;;;12.45;6.75;;;9.90;99.90;;;;;;5048393;28;20131;-77
2023/09/23 04:48:43;;;;;;;10.45;6.95;;;9.90;99.90;;;;;;5032865;28;20170;-77
2023/09/23 04:51:08;;;;;;;10.55;6.85;;;9.90;99.90;;;;;;5049157;28;20123;-78
2023/09/23 04:53:35;;;;;;;10.55;6.45;;;9.90;99.90;;;;;;5045802;28;20149;-77
2023/09/23 04:56:10;;;;;;;11.27;6.57;;;9.90;99.90;;;;;;5048031;28;20048;-77
2023/09/23 04:58:36;;;;;;;12.65;6.68;;;9.90;99.90;;;;;;5018201;28;20394;-78
2023/09/23 05:01:03;;;;;;;11.68;6.53;;;9.90;99.90;;;;;;5047536;28;20044;-77
2023/09/23 05:03:29;;;;;;;12.77;7.13;;;9.90;99.90;;;;;;5046477;28;20056;-77
2023/09/23 05:05:55;;;;;;;11.48;6.75;;;9.80;99.90;;;;;;5046488;28;20687;-77
2023/09/23 05:08:21;;;;;;;12.43;6.95;;;9.90;99.90;;;;;;5054031;28;20074;-77
2023/09/23 05:10:47;;;;;;;14.70;7.72;;;9.80;99.90;;;;;;5066747;28;20028;-77
2023/09/23 05:13:17;;;;;;;9.60;6.38;;;9.80;99.90;;;;;;5039911;28;20041;-77
2023/09/23 05:15:43;;;;;;;12.48;6.78;;;9.80;99.90;;;;;;5048937;28;20052;-77
2023/09/23 05:18:08;;;;;;;12.20;6.90;;;9.70;99.90;;;;;;5045965;28;20045;-78
2023/09/23 05:20:34;;;;;;;13.88;7.80;;;9.80;99.90;;;;;;5077662;28;20070;-77
2023/09/23 05:23:04;;;;;;;12.60;7.75;;;9.80;99.90;;;;;;5029302;28;20044;-77
2023/09/23 05:25:31;;;;;;;14.65;7.93;;;9.80;99.90;;;;;;5044982;28;20653;-77
2023/09/23 05:27:57;;;;;;;14.45;8.65;;;9.80;99.90;;;;;;5041199;28;20048;-77
2023/09/23 05:30:25;;;;;;;12.02;7.25;;;9.80;99.90;;;;;;5035195;28;20481;-78
2023/09/23 05:32:50;;;;;;;13.52;8.38;;;9.80;99.90;;;;;;5036862;28;20460;-78
2023/09/23 05:35:16;;;;;;;13.52;8.52;;;9.80;99.90;;;;;;5028336;28;20106;-78
2023/09/23 05:37:43;;;;;;;14.70;8.05;;;9.80;99.90;;;;;;5045451;28;20124;-78
2023/09/23 05:40:12;;;;;;;14.10;8.38;;;9.80;99.90;;;;;;5043876;28;20083;-78
2023/09/23 05:42:38;;;;;;;16.00;8.80;;;9.80;99.90;;;;;;5050110;28;20064;-78
2023/09/23 05:45:04;;;;;;;15.00;8.52;;;9.90;99.90;;;;;;5031886;28;20041;-78
2023/09/23 05:47:30;;;;;;;15.60;8.70;;;9.90;99.90;;;;;;5045817;28;20040;-77
2023/09/23 05:49:56;;;;;;;19.02;9.65;;;10.00;99.90;;;;;;5035801;28;20040;-77
2023/09/23 05:52:22;;;;;;;18.42;9.80;;;10.00;99.90;;;;;;5046083;28;20503;-78
2023/09/23 05:54:48;;;;;;;21.42;10.00;;;10.10;99.90;;;;;;5038200;28;20063;-78
2023/09/23 05:57:13;;;;;;;19.75;10.27;;;10.20;99.90;;;;;;5019434;28;20049;-78
2023/09/23 05:59:39;;;;;;;21.23;11.52;;;10.30;99.90;;;;;;5057416;28;20052;-78
2023/09/23 06:02:08;;;;;;;25.50;12.65;;;10.40;99.90;;;;;;5020229;28;20123;-78
2023/09/23 06:04:35;;;;;;;24.60;12.93;;;10.50;99.90;;;;;;5047273;28;20049;-78
2023/09/23 06:07:00;;;;;;;27.00;13.85;;;10.50;99.90;;;;;;5031108;28;20487;-77
2023/09/23 06:09:26;;;;;;;31.05;13.95;;;10.60;99.90;;;;;;5044272;28;20036;-77
2023/09/23 06:11:52;;;;;;;29.98;15.68;;;10.70;99.90;;;;;;5038075;28;20426;-77
2023/09/23 06:14:18;;;;;;;32.65;16.35;;;10.80;99.90;;;;;;5036310;28;20665;-76
2023/09/23 06:16:44;;;;;;;29.10;14.70;;;10.80;99.90;;;;;;5032790;28;20072;-76
2023/09/23 06:19:09;;;;;;;43.78;16.83;;;10.80;99.90;;;;;;5038113;28;20048;-76
2023/09/23 06:21:35;;;;;;;31.25;16.90;;;10.90;99.90;;;;;;5031971;28;20394;-76
2023/09/23 06:24:01;;;;;;;35.20;18.33;;;11.00;99.90;;;;;;5052460;28;20036;-76
2023/09/23 06:26:26;;;;;;;38.92;17.83;;;11.10;99.90;;;;;;5050126;28;20044;-76
2023/09/23 06:28:52;;;;;;;36.63;16.95;;;11.10;99.90;;;;;;5047203;28;20036;-76
2023/09/23 06:31:17;;;;;;;34.80;17.33;;;11.20;99.90;;;;;;5046937;28;20671;-76
2023/09/23 06:33:43;;;;;;;31.40;16.40;;;11.20;99.90;;;;;;5039217;28;20101;-76
2023/09/23 06:36:09;;;;;;;30.52;16.70;;;11.30;99.90;;;;;;5043788;28;20053;-76
2023/09/23 06:38:34;;;;;;;34.47;18.15;;;11.40;99.90;;;;;;5045938;28;20607;-76
2023/09/23 06:41:00;;;;;;;31.25;15.95;;;11.40;99.90;;;;;;5050458;28;20060;-76
2023/09/23 06:43:26;;;;;;;30.08;16.52;;;11.50;99.90;;;;;;5036029;28;20414;-76
2023/09/23 06:45:57;;;;;;;33.85;16.92;;;11.60;99.90;;;;;;5048324;28;20041;-76
2023/09/23 06:48:23;;;;;;;33.38;17.83;;;11.60;99.90;;;;;;5063857;28;20044;-77
2023/09/23 06:51:15;;;;;;;29.95;17.45;;;11.60;99.90;;;;;;5028098;28;20155;-77
2023/09/23 06:53:42;;;;;;;30.10;16.23;;;11.70;99.90;;;;;;5044909;28;20041;-76
2023/09/23 06:56:07;;;;;;;28.60;15.70;;;11.80;99.90;;;;;;5023759;28;20040;-77
2023/09/23 06:58:33;;;;;;;29.80;16.33;;;11.80;99.90;;;;;;5034752;28;20066;-76
2023/09/23 07:00:59;;;;;;;29.92;16.48;;;11.90;99.90;;;;;;5044857;28;20040;-77
2023/09/23 07:03:24;;;;;;;29.38;16.45;;;12.00;99.90;;;;;;5047042;28;20094;-77
2023/09/23 07:05:50;;;;;;;31.02;17.05;;;12.00;99.90;;;;;;5029514;28;20041;-77
2023/09/23 07:08:16;;;;;;;27.95;16.42;;;12.10;99.90;;;;;;5041748;28;20040;-76
2023/09/23 07:10:42;;;;;;;27.10;15.88;;;12.10;99.90;;;;;;5040463;28;20040;-77
2023/09/23 07:13:08;;;;;;;31.52;16.20;;;12.10;99.90;;;;;;5044015;28;20167;-77
2023/09/23 07:15:38;;;;;;;28.02;15.23;;;12.10;99.90;;;;;;5044679;28;20044;-77
2023/09/23 07:18:04;;;;;;;29.65;16.38;;;12.10;99.90;;;;;;5032710;28;20048;-77
2023/09/23 07:20:30;;;;;;;29.77;15.25;;;12.10;99.90;;;;;;5029447;28;20070;-77
2023/09/23 07:22:56;;;;;;;27.50;15.48;;;12.00;99.90;;;;;;5061834;28;20033;-76
2023/09/23 07:25:22;;;;;;;24.17;15.43;;;12.00;99.90;;;;;;5044539;28;20630;-77
2023/09/23 07:27:47;;;;;;;27.35;15.68;;;12.10;99.90;;;;;;5045731;28;20119;-76
2023/09/23 07:30:14;;;;;;;25.25;14.68;;;12.10;99.90;;;;;;5048789;28;20128;-76
2023/09/23 07:32:40;;;;;;;28.23;16.20;;;12.10;99.90;;;;;;5051119;28;20036;-77
2023/09/23 07:35:07;;;;;;;24.85;14.57;;;12.20;99.90;;;;;;5033036;28;20491;-77
2023/09/23 07:37:33;;;;;;;27.40;15.25;;;12.20;99.90;;;;;;5028471;28;20036;-77
2023/09/23 07:39:59;;;;;;;25.05;14.00;;;12.20;99.90;;;;;;5032026;28;20080;-78
2023/09/23 07:42:25;;;;;;;22.35;13.65;;;12.20;99.90;;;;;;5027354;28;20088;-76
2023/09/23 07:44:51;;;;;;;22.63;13.80;;;12.30;99.90;;;;;;5040796;28;20033;-77
2023/09/23 07:47:16;;;;;;;24.58;14.75;;;12.50;99.90;;;;;;5046784;28;20423;-77
2023/09/23 07:49:42;;;;;;;27.75;14.23;;;12.70;99.90;;;;;;5028273;28;20048;-77
2023/09/23 07:52:08;;;;;;;25.05;14.27;;;12.90;99.90;;;;;;5027320;28;22106;-78
2023/09/23 07:54:33;;;;;;;25.75;14.63;;;13.00;99.90;;;;;;5029781;28;20035;-77
2023/09/23 07:56:59;;;;;;;22.60;14.00;;;13.10;99.90;;;;;;5055937;28;20063;-77
2023/09/23 07:59:25;;;;;;;24.30;13.63;;;13.30;99.90;;;;;;5047392;28;20036;-78
2023/09/23 08:01:50;;;;;;;21.13;13.30;;;13.50;99.90;;;;;;5043147;28;20498;-78
2023/09/23 08:04:16;;;;;;;20.10;13.13;;;13.60;99.90;;;;;;5045352;28;20045;-78
2023/09/23 08:06:42;;;;;;;21.52;13.32;;;13.80;99.90;;;;;;5027993;28;20036;-77
2023/09/23 08:09:09;;;;;;;21.98;13.10;;;13.90;99.90;;;;;;5054729;28;20419;-77
2023/09/23 08:11:34;;;;;;;20.95;12.10;;;14.00;99.90;;;;;;5046260;28;20111;-77
2023/09/23 08:14:00;;;;;;;21.00;13.13;;;14.10;99.90;;;;;;5024247;28;20111;-78
2023/09/23 08:16:26;;;;;;;19.30;11.88;;;14.10;99.90;;;;;;5040520;28;20093;-78
2023/09/23 08:18:52;;;;;;;19.40;11.38;;;14.00;99.90;;;;;;5049226;28;20042;-77
2023/09/23 08:21:18;;;;;;;19.15;12.38;;;13.80;99.90;;;;;;5063657;28;20032;-77
2023/09/23 08:23:43;;;;;;;16.92;11.10;;;13.90;99.90;;;;;;5027826;28;20083;-77
2023/09/23 08:26:10;;;;;;;19.83;10.48;;;13.90;99.90;;;;;;5044894;28;20135;-78
2023/09/23 08:28:36;;;;;;;16.98;10.32;;;14.10;99.90;;;;;;5027098;28;20040;-78
2023/09/23 08:31:02;;;;;;;14.23;9.45;;;14.10;99.90;;;;;;5025650;28;20044;-77
2023/09/23 08:33:28;;;;;;;15.02;9.32;;;14.00;99.90;;;;;;5026373;28;20040;-77
2023/09/23 08:35:54;;;;;;;16.58;9.05;;;14.20;99.90;;;;;;5021137;28;20080;-77
2023/09/23 08:38:20;;;;;;;14.88;8.85;;;14.20;99.90;;;;;;5041495;28;20665;-78
2023/09/23 08:40:46;;;;;;;14.70;9.32;;;14.30;99.90;;;;;;5049208;28;20127;-78
2023/09/23 08:43:12;;;;;;;14.25;9.50;;;14.50;99.90;;;;;;5039728;28;20056;-77
2023/09/23 08:45:46;;;;;;;16.23;8.68;;;14.60;99.90;;;;;;5036539;28;20053;-78
2023/09/23 08:48:13;;;;;;;11.77;8.02;;;14.60;99.90;;;;;;5042781;28;20086;-78
2023/09/23 08:50:43;;;;;;;14.05;8.38;;;14.60;99.90;;;;;;5043650;28;20509;-79
2023/09/23 08:53:11;;;;;;;12.38;8.23;;;14.60;99.90;;;;;;5042541;28;20163;-77
2023/09/23 08:55:38;;;;;;;11.93;7.80;;;14.60;99.90;;;;;;5022263;28;20049;-77
2023/09/23 08:58:04;;;;;;;12.73;8.32;;;14.80;99.90;;;;;;5040257;28;20045;-77
2023/09/23 09:00:31;;;;;;;11.70;7.80;;;14.90;99.90;;;;;;5038328;28;20112;-77
2023/09/23 09:02:57;;;;;;;11.70;8.32;;;14.90;99.90;;;;;;5049213;28;20040;-77
2023/09/23 09:05:23;;;;;;;11.35;7.85;;;14.90;99.90;;;;;;5053918;28;20068;-77
2023/09/23 09:07:49;;;;;;;11.90;8.02;;;14.90;99.90;;;;;;5046694;28;20459;-76
2023/09/23 09:10:17;;;;;;;10.60;7.28;;;14.80;99.90;;;;;;5029810;28;20052;-76
2023/09/23 09:12:43;;;;;;;10.38;7.50;;;14.80;99.90;;;;;;5048285;28;20556;-76
2023/09/23 09:15:09;;;;;;;12.73;7.55;;;14.70;99.90;;;;;;5034241;28;20160;-76
2023/09/23 09:17:35;;;;;;;11.13;7.85;;;14.50;99.90;;;;;;5040217;28;20078;-77
2023/09/23 09:20:08;;;;;;;9.77;7.55;;;14.50;99.90;;;;;;5046099;28;20487;-77
2023/09/23 09:22:36;;;;;;;11.88;7.43;;;14.60;99.90;;;;;;5050000;28;20040;-77
2023/09/23 09:25:03;;;;;;;11.73;7.80;;;14.80;99.90;;;;;;5035537;28;20148;-77
2023/09/23 09:27:29;;;;;;;11.13;8.05;;;14.90;99.90;;;;;;5047652;28;20045;-76
2023/09/23 09:29:54;;;;;;;8.07;6.85;;;14.90;99.90;;;;;;5032295;28;20537;-77
2023/09/23 09:32:29;;;;;;;10.65;6.88;;;15.00;99.90;;;;;;5041715;28;20045;-77
2023/09/23 09:34:59;;;;;;;10.65;7.97;;;15.20;99.90;;;;;;5044071;28;20048;-77
2023/09/23 09:37:26;;;;;;;11.55;7.32;;;15.40;99.90;;;;;;5025375;28;20044;-76
2023/09/23 09:40:09;;;;;;;7.80;6.22;;;15.50;99.90;;;;;;5052997;28;20090;-76
2023/09/23 09:42:39;;;;;;;10.52;5.90;;;15.90;99.90;;;;;;5038706;28;20132;-77
2023/09/23 09:45:08;;;;;;;8.35;6.25;;;16.40;99.90;;;;;;5047123;28;20449;-77
2023/09/23 09:47:35;;;;;;;9.60;6.38;;;16.80;99.90;;;;;;5031036;28;20044;-77
2023/09/23 09:50:04;;;;;;;10.80;6.35;;;16.50;99.90;;;;;;5043088;28;20116;-76
2023/09/23 09:52:32;;;;;;;7.03;5.40;;;16.40;99.90;;;;;;5046810;28;20053;-77
2023/09/23 09:55:00;;;;;;;7.65;5.40;;;16.40;99.90;;;;;;5042495;28;20094;-77
2023/09/23 09:57:29;;;;;;;7.20;4.78;;;16.50;99.90;;;;;;5044319;28;20041;-77
2023/09/23 10:00:00;;;;;;;6.53;5.50;;;16.20;99.90;;;;;;5052916;28;20045;-77
2023/09/23 10:02:26;;;;;;;8.23;5.00;;;15.90;99.90;;;;;;5031547;28;20556;-77
2023/09/23 10:04:53;;;;;;;6.60;4.88;;;15.60;99.90;;;;;;5017390;28;20045;-77
2023/09/23 10:07:22;;;;;;;8.30;5.25;;;15.40;99.90;;;;;;5019965;28;20131;-77
2023/09/23 10:09:55;;;;;;;7.93;4.85;;;15.40;99.90;;;;;;5052126;28;20052;-76
2023/09/23 10:12:32;;;;;;;6.13;4.40;;;15.60;99.90;;;;;;5031331;28;20115;-77
2023/09/23 10:15:01;;;;;;;6.40;4.88;;;16.10;99.90;;;;;;5057899;28;20041;-77
2023/09/23 10:17:33;;;;;;;5.70;4.65;;;16.50;99.90;;;;;;5032132;28;20040;-77
2023/09/23 10:19:58;;;;;;;6.35;5.03;;;16.80;99.90;;;;;;5047464;28;20052;-77
2023/09/23 10:22:28;;;;;;;7.18;4.10;;;17.70;99.90;;;;;;5032246;28;20073;-77
2023/09/23 10:25:04;;;;;;;6.38;4.65;;;18.90;99.90;;;;;;5033992;28;20442;-77
2023/09/23 10:27:30;;;;;;;7.00;4.40;;;19.70;1.00;;;;;;5026456;28;20044;-77
2023/09/23 10:29:56;;;;;;;4.93;3.58;;;20.40;1.00;;;;;;5033550;28;20507;-78
2023/09/23 10:32:22;;;;;;;4.25;3.03;;;20.20;1.00;;;;;;5030055;28;20032;-78
2023/09/23 10:34:53;;;;;;;7.47;3.20;;;19.60;1.00;;;;;;5023999;28;20082;-78
2023/09/23 10:37:32;;;;;;;3.47;2.75;;;18.80;1.00;;;;;;5037246;28;20407;-78
2023/09/23 10:40:14;;;;;;;4.72;2.70;;;18.20;1.00;;;;;;5036578;28;20040;-77
2023/09/23 10:42:41;;;;;;;4.30;2.70;;;17.80;1.00;;;;;;5030520;28;20139;-78
2023/09/23 10:45:08;;;;;;;5.35;2.63;;;17.60;22.00;;;;;;5041964;28;20036;-77
2023/09/23 10:47:36;;;;;;;6.97;2.70;;;17.60;19.10;;;;;;5047357;28;20072;-78
2023/09/23 10:50:06;;;;;;;5.25;2.60;;;17.60;1.00;;;;;;5032713;28;20036;-77
2023/09/23 10:52:33;;;;;;;3.90;2.45;;;18.00;1.00;;;;;;5041310;28;20604;-77
2023/09/23 10:54:59;;;;;;;4.13;2.38;;;18.10;1.00;;;;;;5047406;28;20040;-77
2023/09/23 10:57:25;;;;;;;6.00;2.47;;;17.80;1.00;;;;;;5048939;28;20078;-77
2023/09/23 10:59:52;;;;;;;4.63;3.25;;;17.40;1.00;;;;;;5030232;28;20043;-76
2023/09/23 11:02:22;;;;;;;4.13;3.08;;;16.50;23.00;;;;;;5030510;28;20873;-76
2023/09/23 11:04:49;;;;;;;3.83;2.97;;;15.80;99.90;;;;;;5047974;28;20060;-74
2023/09/23 11:07:16;;;;;;;4.97;2.90;;;15.50;99.90;;;;;;5037926;28;20059;-74
2023/09/23 11:09:45;;;;;;;7.78;3.33;;;15.30;99.90;;;;;;5057954;28;20037;-74
2023/09/23 11:12:16;;;;;;;5.03;3.40;;;15.30;99.90;;;;;;5047587;28;20403;-76
2023/09/23 11:14:45;;;;;;;5.10;3.00;;;15.50;99.90;;;;;;5039464;28;20039;-77
2023/09/23 11:17:29;;;;;;;6.88;3.50;;;15.70;99.90;;;;;;5027752;28;20064;-76
2023/09/23 11:19:59;;;;;;;5.05;3.03;;;15.80;99.90;;;;;;5061065;28;20050;-76
2023/09/23 11:22:29;;;;;;;4.72;2.83;;;16.00;99.90;;;;;;5043116;28;20076;-77
2023/09/23 11:24:58;;;;;;;6.25;2.63;;;16.10;99.90;;;;;;5043076;28;20041;-76
2023/09/23 11:27:25;;;;;;;6.65;2.80;;;15.80;99.90;;;;;;5043756;28;20045;-76
2023/09/23 11:29:52;;;;;;;4.10;2.90;;;15.70;99.90;;;;;;5042260;28;20040;-76
2023/09/23 11:32:23;;;;;;;4.35;2.65;;;15.60;99.90;;;;;;5047538;28;20036;-76
2023/09/23 11:34:50;;;;;;;5.97;2.70;;;15.50;99.90;;;;;;5061385;28;20041;-76
2023/09/23 11:37:17;;;;;;;3.90;2.10;;;15.50;99.90;;;;;;5045403;28;20542;-77
2023/09/23 11:39:42;;;;;;;5.45;2.00;;;15.50;99.90;;;;;;5048922;28;20036;-76
2023/09/23 11:42:08;;;;;;;3.40;2.20;;;15.50;99.90;;;;;;5047859;28;20598;-76
2023/09/23 11:44:34;;;;;;;6.18;2.58;;;15.50;99.90;;;;;;5046522;28;20125;-76
2023/09/23 11:47:00;;;;;;;3.95;2.40;;;15.50;99.90;;;;;;5044280;28;20119;-76
2023/09/23 11:49:26;;;;;;;4.32;2.28;;;15.50;99.90;;;;;;5045676;28;20039;-77
2023/09/23 11:51:51;;;;;;;4.00;2.20;;;16.10;99.90;;;;;;5044460;28;20028;-78
2023/09/23 11:54:17;;;;;;;3.38;1.67;;;16.90;99.90;;;;;;5042170;28;21972;-77
2023/09/23 11:56:43;;;;;;;3.08;1.80;;;17.40;99.90;;;;;;5042311;28;20036;-77
2023/09/23 11:59:08;;;;;;;3.88;2.03;;;17.30;99.90;;;;;;5039736;28;20442;-78
2023/09/23 12:01:34;;;;;;;2.70;1.77;;;17.00;99.90;;;;;;5033054;28;20041;-77
2023/09/23 12:04:00;;;;;;;2.83;1.77;;;16.90;99.90;;;;;;5035124;28;20044;-77
2023/09/23 12:06:25;;;;;;;1.70;1.35;;;16.80;99.90;;;;;;5052985;28;20509;-78
2023/09/23 12:08:51;;;;;;;3.45;1.33;;;17.00;99.90;;;;;;5047306;28;20465;-77
2023/09/23 12:11:21;;;;;;;3.08;1.35;;;17.00;99.90;;;;;;5052500;28;20056;-78
2023/09/23 12:13:52;;;;;;;1.77;1.20;;;16.70;99.90;;;;;;5037059;28;20159;-77
2023/09/23 12:16:17;;;;;;;3.95;1.40;;;16.30;99.90;;;;;;5048231;28;20044;-78
2023/09/23 12:18:44;;;;;;;3.42;1.20;;;16.00;99.90;;;;;;5052935;28;20097;-76
2023/09/23 12:21:10;;;;;;;2.58;1.30;;;15.80;99.90;;;;;;5047444;28;20052;-78
2023/09/23 12:23:39;;;;;;;2.90;1.73;;;15.50;99.90;;;;;;5028446;28;20158;-77
2023/09/23 12:26:05;;;;;;;1.85;1.30;;;15.30;99.90;;;;;;5047722;28;20048;-77
2023/09/23 12:28:31;;;;;;;3.35;1.48;;;15.00;99.90;;;;;;5050198;28;20044;-77
2023/09/23 12:30:57;;;;;;;3.15;1.88;;;14.80;99.90;;;;;;5042333;28;20037;-77
2023/09/23 12:33:23;;;;;;;5.22;2.28;;;14.70;99.90;;;;;;5047430;28;20466;-77
2023/09/23 12:35:48;;;;;;;2.67;1.95;;;14.70;99.90;;;;;;5052157;28;20431;-77
2023/09/23 12:38:14;;;;;;;6.18;2.15;;;14.60;99.90;;;;;;5044836;28;20099;-77
2023/09/23 12:40:40;;;;;;;2.72;2.03;;;14.60;99.90;;;;;;5045150;28;20051;-77
2023/09/23 12:43:05;;;;;;;6.20;2.70;;;14.50;99.90;;;;;;5042854;28;20044;-77